• Join FlightAware (Why Join?)
  • Login
  • US Flag 
08:41AM EDT


 

Airport Tracker/Info


-or-


 

Live Flight TrackerFlight Track Log ✈ LXJ437 ✈ 13-Jun-2013 ✈ CYOW - KTEB

Flight Track Log - Related Links

Times and Time Zones

All times are in EDT time to prevent confusion due to time zone crossing. See the LXJ437 flight status page for this flight to view local times or setup timezone preferences in your user account.

Time Position Orientation Groundspeed Altitude Reporting Facility
EDT Latitude Longitude Course Direction KTS MPH feet Rate Location/Type
11:03AM 45.3333 -75.5833 47° Northeast 200 230 4,600  Level Montreal Center
11:04AM 45.3333 -75.5167 90° East 220 253 9,100 4,680 Climbing Montreal Center
11:05AM 45.2667 -75.5333 190° South 240 276 14,000 5,160 Climbing Montreal Center
11:06AM 45.2000 -75.5833 208° Southwest 250 288 19,500 4,380 Climbing Montreal Center
11:07AM 45.1500 -75.6333 215° Southwest 240 276 22,800 3,180 Climbing Montreal Center
11:08AM 44.9516 -75.7913 190° South  Level FlightAware Approximate
11:08AM 45.0833 -75.6833 208° Southwest 270 311 25,900  Level Montreal Center
11:09AM 45.0000 -75.7333 203° Southwest 290 334 27,000 540 Climbing Montreal Center
11:10AM 44.9167 -75.8000 210° Southwest 370 426 27,000 1,680 Level Montreal Center
11:11AM 44.8000 -75.8667 202° Southwest 430 495 30,400 3,900 Climbing Montreal Center
11:12AM 44.7167 -75.9500 215° Southwest 370 426 34,800 2,280 Climbing Montreal Center
11:13AM 44.6167 -76.0000 200° South 370 426 35,000 60 Climbing Montreal Center
11:14AM 44.5000 -76.0000 180° South 420 483 35,000  Level Montreal Center
11:15AM 44.3667 -76.0167 185° South 450 518 35,000  Level Montreal Center
11:16AM 44.3117 -76.0236 185° South 446 513 35,000  Level Boston Center
11:17AM 44.1861 -76.0392 185° South 460 529 35,000  Level Boston Center
11:18AM 44.0608 -76.0519 184° South 465 535 35,000  Level Boston Center
11:19AM 43.9353 -76.0672 185° South 465 535 35,000  Level Boston Center
11:20AM 43.8114 -76.0917 188° South 465 535 35,000  Level Boston Center
11:21AM 43.6878 -76.1128 187° South 465 535 35,000 -960 Level Boston Center
11:22AM 43.5681 -76.1369 188° South 460 529 33,000 -1,920 Descending Boston Center
11:23AM 43.4467 -76.1583 187° South 448 516 30,800 -2,340 Descending Boston Center
11:24AM 43.3061 -76.1811 187° South 448 516 28,400 -1,920 Descending Boston Center
11:25AM 43.1928 -76.2025 188° South 435 501 27,000 -720 Descending Boston Center
11:26AM 43.0800 -76.1500 161° South 412 474 27,000  Level Boston Center
11:27AM 42.9764 -76.0586 147° Southeast 436 502 27,000  Level Boston Center
11:28AM 42.8628 -75.9614 148° Southeast 459 528 27,000 -600 Level Boston Center
11:29AM 42.7467 -75.8700 150° Southeast 469 540 25,900 -1,020 Descending Boston Center
11:30AM 42.6350 -75.7761 148° Southeast 481 554 25,000 -480 Descending Boston Center
11:31AM 42.5208 -75.6800 148° Southeast 475 547 25,000 -240 Level Boston Center
11:32AM 42.4219 -75.5622 139° Southeast 480 552 24,600 -1,080 Descending Boston Center
11:33AM 42.3519 -75.4547 131° Southeast 480 552 22,900 -2,880 Descending Boston Center
11:34AM 42.2542 -75.2900 129° Southeast 475 547 18,900 -3,180 Descending Boston Center
11:35AM 42.1758 -75.1661 130° Southeast 457 526 16,600 -1,920 Descending Boston Center
11:36AM 42.0933 -75.0478 133° Southeast 443 510 15,100 -780 Descending Boston Center
11:37AM 42.0022 -74.9183 133° Southeast 433 498 15,100 -900 Level Boston Center
11:38AM 41.9094 -74.8700 159° South 402 463 13,300 -2,100 Descending Boston Center
11:39AM 41.8025 -74.8072 156° South 385 443 10,900 -2,040 Descending Boston Center
11:40AM 41.7325 -74.7686 158° South 333 383 9,300 -1,860 Descending Boston Center
11:41AM 41.6561 -74.7242 157° South 282 325 7,200 -1,380 Descending Boston Center
11:42AM 41.5944 -74.6914 158° South 269 310 6,600 -600 Descending Boston Center
11:43AM 41.5222 -74.6528 158° South 262 302 6,000 -240 Descending Boston Center
11:45AM 41.4000 -74.6000 162° South 252 290 6,000  Level New York TRACON
11:46AM 41.3500 -74.5667 153° Southeast 252 290 6,000 -300 Level New York TRACON
11:47AM 41.2833 -74.5333 159° South 268 308 5,500 -960 Descending New York TRACON
11:48AM 41.2167 -74.5000 159° South 243 280 4,100 -780 Descending New York TRACON
11:49AM 41.1500 -74.4667 159° South 243 280 4,000 -240 Descending New York TRACON
11:50AM 41.0833 -74.4500 169° South 227 261 3,700 -540 Descending New York TRACON
11:51AM 41.0333 -74.4167 153° Southeast 232 267 3,000 -360 Descending New York TRACON
11:52AM 40.9667 -74.4167 180° South 241 277 3,000  Level New York TRACON
11:53AM 40.9000 -74.4167 180° South 238 274 3,000  Level New York TRACON
11:54AM 40.8333 -74.4167 180° South 234 269 3,000  Level New York TRACON
11:55AM 40.7667 -74.4167 180° South 239 275 3,000  Level New York TRACON